1885 NOT_NAMED (1885043S15069)


IBTrACS version v04r00. Visit IBTrACS website for data access.
Please direct all questions to the IBTrACS Q and A forum

Storm track - Intensity - Wind Radii - Intensity Data - Source Data - All data

Summary Information

Storm ID 1885043S15069
Start Feb 12 00Z
End Feb 18 00Z
ATCF IDs
Track status Best track data.

Storm track plot

Map of storm track

Intensity plots

No Intensity information for this storm


Radial wind information

No radial wind information for this storm


Position and Intensity Table

BASIN ISO_TIME_________ NATURE LAT LON
degrees north degrees east
SI 1885-02-12 00:00:00 TS -15.00 69.30
SI 03:00:00 TS -15.14 69.10
SI 06:00:00 TS -15.30 68.90
SI 09:00:00 TS -15.50 68.73
SI 12:00:00 TS -15.70 68.60
SI 15:00:00 TS -15.86 68.54
SI 18:00:00 TS -16.00 68.50
SI 21:00:00 TS -16.15 68.41
SI 1885-02-13 00:00:00 TS -16.30 68.30
SI 03:00:00 TS -16.44 68.16
SI 06:00:00 TS -16.60 68.00
SI 09:00:00 TS -16.80 67.84
SI 12:00:00 TS -17.00 67.70
SI 15:00:00 TS -17.16 67.59
SI 18:00:00 TS -17.30 67.50
SI 21:00:00 TS -17.45 67.40
SI 1885-02-14 00:00:00 TS -17.60 67.30
SI 03:00:00 TS -17.74 67.20
SI 06:00:00 TS -17.90 67.10
SI 09:00:00 TS -18.10 67.01
SI 12:00:00 TS -18.30 66.90
SI 15:00:00 TS -18.45 66.75
SI 18:00:00 TS -18.60 66.60
SI 21:00:00 TS -18.79 66.49
SI 1885-02-15 00:00:00 TS -19.00 66.40
SI 03:00:00 TS -19.20 66.30
SI 06:00:00 TS -19.40 66.20
SI 09:00:00 TS -19.60 66.10
SI 12:00:00 TS -19.80 66.00
SI 15:00:00 TS -20.00 65.90
SI 18:00:00 TS -20.20 65.80
SI 21:00:00 TS -20.40 65.70
SI 1885-02-16 00:00:00 TS -20.60 65.60
SI 03:00:00 TS -20.79 65.49
SI 06:00:00 TS -21.00 65.40
SI 09:00:00 TS -21.26 65.35
SI 12:00:00 TS -21.50 65.30
SI 15:00:00 TS -21.66 65.20
SI 18:00:00 TS -21.80 65.10
SI 21:00:00 TS -21.98 65.05
SI 1885-02-17 00:00:00 TS -22.20 65.00
SI 03:00:00 TS -22.44 64.90
SI 06:00:00 TS -22.70 64.80
SI 09:00:00 TS -22.99 64.74
SI 12:00:00 TS -23.30 64.70
SI 15:00:00 TS -23.60 64.65
SI 18:00:00 TS -23.90 64.60
SI 21:00:00 TS -24.20 64.55
SI 1885-02-18 00:00:00 TS -24.50 64.50

Source Information

Agency Information
USA
TOKYO
CMA
HKO
NEWDELHI
REUNION
BOM
NADI
WELLINGTON
DS824 s_hem.dat:42:NOT NAMED
TD9636
TD9635
NEUMANN
MLC

All available IBTrACS Data

SEASON BASIN SUBBASIN ISO_TIME_________ NATURE LAT LON DIST2LAND LANDFALL IFLAG USA SSHS DS824 LAT DS824 LON DS824 STAGE STORM SPEED STORM DIR
Year degrees north degrees east km km 1 degrees north degrees east kts degrees
1885 SI MM 1885-02-12 00:00:00 TS -15.00 69.30 1354 1330 _________O____ -1 -15.00 69.30 TC 5 235
1885 SI MM 03:00:00 TS -15.14 69.10 1330 1301 _________P____ -1 -15.14 69.10 TC 5 232
1885 SI MM 06:00:00 TS -15.30 68.90 1301 1271 _________O____ -1 -15.30 68.90 TC 5 224
1885 SI MM 09:00:00 TS -15.50 68.73 1271 1252 _________P____ -1 -15.50 68.73 TC 5 216
1885 SI MM 12:00:00 TS -15.70 68.60 1252 1237 _________O____ -1 -15.70 68.60 TC 4 207
1885 SI MM 15:00:00 TS -15.86 68.54 1233 1228 _________P____ -1 -15.86 68.54 TC 3 197
1885 SI MM 18:00:00 TS -16.00 68.50 1228 1213 _________O____ -1 -16.00 68.50 TC 3 204
1885 SI MM 21:00:00 TS -16.15 68.41 1213 1195 _________P____ -1 -16.15 68.41 TC 4 213
1885 SI MM 1885-02-13 00:00:00 TS -16.30 68.30 1195 1180 _________O____ -1 -16.30 68.30 TC 4 220
1885 SI MM 03:00:00 TS -16.44 68.16 1180 1152 _________P____ -1 -16.44 68.16 TC 4 224
1885 SI MM 06:00:00 TS -16.60 68.00 1152 1134 _________O____ -1 -16.60 68.00 TC 5 220
1885 SI MM 09:00:00 TS -16.80 67.84 1124 1106 _________P____ -1 -16.80 67.84 TC 5 216
1885 SI MM 12:00:00 TS -17.00 67.70 1106 1092 _________O____ -1 -17.00 67.70 TC 4 214
1885 SI MM 15:00:00 TS -17.16 67.59 1088 1074 _________P____ -1 -17.16 67.59 TC 4 212
1885 SI MM 18:00:00 TS -17.30 67.50 1074 1060 _________O____ -1 -17.30 67.50 TC 3 213
1885 SI MM 21:00:00 TS -17.45 67.40 1060 1043 _________P____ -1 -17.45 67.40 TC 4 212
1885 SI MM 1885-02-14 00:00:00 TS -17.60 67.30 1043 1030 _________O____ -1 -17.60 67.30 TC 4 213
1885 SI MM 03:00:00 TS -17.74 67.20 1030 1013 _________P____ -1 -17.74 67.20 TC 4 212
1885 SI MM 06:00:00 TS -17.90 67.10 1013 996 _________O____ -1 -17.90 67.10 TC 4 207
1885 SI MM 09:00:00 TS -18.10 67.01 996 980 _________P____ -1 -18.10 67.01 TC 4 205
1885 SI MM 12:00:00 TS -18.30 66.90 980 967 _________O____ -1 -18.30 66.90 TC 4 215
1885 SI MM 15:00:00 TS -18.45 66.75 954 941 _________P____ -1 -18.45 66.75 TC 4 223
1885 SI MM 18:00:00 TS -18.60 66.60 941 926 _________O____ -1 -18.60 66.60 TC 4 215
1885 SI MM 21:00:00 TS -18.79 66.49 926 912 _________P____ -1 -18.79 66.49 TC 4 205
1885 SI MM 1885-02-15 00:00:00 TS -19.00 66.40 912 897 _________O____ -1 -19.00 66.40 TC 4 204
1885 SI MM 03:00:00 TS -19.20 66.30 897 884 _________P____ -1 -19.20 66.30 TC 4 205
1885 SI MM 06:00:00 TS -19.40 66.20 884 870 _________O____ -1 -19.40 66.20 TC 4 205
1885 SI MM 09:00:00 TS -19.60 66.10 870 858 _________P____ -1 -19.60 66.10 TC 4 205
1885 SI MM 12:00:00 TS -19.80 66.00 858 846 _________O____ -1 -19.80 66.00 TC 4 205
1885 SI MM 15:00:00 TS -20.00 65.90 846 834 _________P____ -1 -20.00 65.90 TC 4 205
1885 SI MM 18:00:00 TS -20.20 65.80 834 823 _________O____ -1 -20.20 65.80 TC 4 205
1885 SI MM 21:00:00 TS -20.40 65.70 823 813 _________P____ -1 -20.40 65.70 TC 4 205
1885 SI MM 1885-02-16 00:00:00 TS -20.60 65.60 813 803 _________O____ -1 -20.60 65.60 TC 4 206
1885 SI MM 03:00:00 TS -20.79 65.49 803 793 _________P____ -1 -20.79 65.49 TC 4 205
1885 SI MM 06:00:00 TS -21.00 65.40 794 794 _________O____ -1 -21.00 65.40 TC 5 196
1885 SI MM 09:00:00 TS -21.26 65.35 787 787 _________P____ -1 -21.26 65.35 TC 5 191
1885 SI MM 12:00:00 TS -21.50 65.30 790 781 _________O____ -1 -21.50 65.30 TC 4 199
1885 SI MM 15:00:00 TS -21.66 65.20 783 773 _________P____ -1 -21.66 65.20 TC 4 211
1885 SI MM 18:00:00 TS -21.80 65.10 775 775 _________O____ -1 -21.80 65.10 TC 4 203
1885 SI MM 21:00:00 TS -21.98 65.05 770 770 _________P____ -1 -21.98 65.05 TC 4 192
1885 SI MM 1885-02-17 00:00:00 TS -22.20 65.00 775 768 _________O____ -1 -22.20 65.00 TC 5 197
1885 SI MM 03:00:00 TS -22.44 64.90 771 768 _________P____ -1 -22.44 64.90 TC 5 200
1885 SI MM 06:00:00 TS -22.70 64.80 772 772 _________O____ -1 -22.70 64.80 TC 6 195
1885 SI MM 09:00:00 TS -22.99 64.74 774 774 _________P____ -1 -22.99 64.74 TC 6 188
1885 SI MM 12:00:00 TS -23.30 64.70 786 786 _________O____ -1 -23.30 64.70 TC 6 188
1885 SI MM 15:00:00 TS -23.60 64.65 790 790 _________P____ -1 -23.60 64.65 TC 6 188
1885 SI MM 18:00:00 TS -23.90 64.60 805 805 _________O____ -1 -23.90 64.60 TC 6 188
1885 SI MM 21:00:00 TS -24.20 64.55 820 812 _________P____ -1 -24.20 64.55 TC 6 188
1885 SI MM 1885-02-18 00:00:00 TS -24.50 64.50 828 _________O____ -1 -24.50 64.50 TC 6 185